Latest Weather Observations for Daly Waters

IDD60801

Issued at 9:01 am CST Monday 27 February 2017 (issued every 30 minutes, with the page automatically refreshed every 10 minutes)

About weather observations | Map of weather stations | Latest weather observations for NT | Other Formats
Station Details ID: 014626 Name: DALY WATERS AIRSTRIP Lat: -16.26 Lon: 133.38 Height: 209.84 m
Data from the previous 72 hours. | See also: Recent months at Daly Waters
Date/Time
CST
Temp
°C
App
Temp
°C
Dew
Point
°C
Rel
Hum
%
Delta-T
°C
Wind Press
QNH
hPa
Press
MSL
hPa
Rain since
9am
mm
Dir  Spd
km/h
Gust
km/h
Spd
kts
Gust
kts
27/09:00am 28.6 32.6 22.8 71 4.0 NE 6 9 3 5 1012.0 1010.5 0.2
27/08:30am 27.0 31.2 22.4 76 3.1 NE 4 7 2 4 1011.8 1010.3 0.2
27/08:00am 25.7 29.9 22.4 82 2.2 ENE 4 7 2 4 1011.4 1009.9 0.2
27/07:30am 23.6 28.8 22.8 95 0.5 CALM 0 0 0 0 1011.1 1009.5 0.2
27/07:00am 22.4 26.7 21.2 93 0.8 CALM 0 0 0 0 1010.7 1009.1 0.2
27/06:30am 22.1 26.2 20.7 92 0.9 CALM 0 0 0 0 1010.4 1008.8 0.2
27/06:00am 22.3 26.5 20.9 92 0.9 CALM 0 0 0 0 1010.1 1008.5 0.2
27/05:30am 22.5 26.7 21.0 91 1.0 CALM 0 0 0 0 1010.0 1008.4 0.2
27/05:00am 22.6 26.9 21.1 91 1.0 CALM 0 0 0 0 1009.7 1008.1 0.2
27/04:30am 23.1 27.2 21.5 91 1.1 ESE 2 2 1 1 1009.8 1008.2 0.2
27/04:00am 23.2 27.0 21.6 91 1.1 SE 4 4 2 2 1009.8 1008.2 0.2
27/03:30am 23.4 27.6 21.8 91 1.1 E 2 2 1 1 1009.9 1008.3 0.2
27/03:00am 23.7 28.0 22.0 90 1.1 NE 2 2 1 1 1009.9 1008.3 0.2
27/02:30am 24.0 28.8 22.1 89 1.3 CALM 0 0 0 0 1010.1 1008.5 0.2
27/02:00am 24.3 29.1 22.2 88 1.4 CALM 0 0 0 0 1010.1 1008.5 0.2
27/01:30am 24.7 29.6 22.4 87 1.6 CALM 0 0 0 0 1010.4 1008.8 0.2
27/01:00am 25.4 30.4 22.5 84 2.0 CALM 0 0 0 0 1010.6 1009.0 0.2
27/12:30am 26.0 30.3 21.9 78 2.8 N 2 4 1 2 1010.8 1009.2 0.2
27/12:00am 26.3 30.4 22.2 78 2.8 N 4 4 2 2 1011.1 1009.5 0.2
 
Date/Time
CST
Temp
°C
App
Temp
°C
Dew
Point
°C
Rel
Hum
%
Delta-T
°C
Wind Press
QNH
hPa
Press
MSL
hPa
Rain since
9am
mm
Dir  Spd
km/h
Gust
km/h
Spd
kts
Gust
kts
26/11:30pm 26.7 30.8 21.5 73 3.5 WNW 2 6 1 3 1011.3 1009.8 0.2
26/11:00pm 27.1 30.7 21.2 70 3.9 S 4 11 2 6 1011.5 1010.0 0.2
26/10:30pm 27.3 29.7 20.9 68 4.3 E 9 15 5 8 1011.7 1010.2 0.2
26/10:00pm 28.1 28.5 19.9 61 5.4 ENE 17 26 9 14 1010.6 1009.0 0.2
26/09:30pm 29.7 30.3 17.8 48 7.6 ENE 11 22 6 12 1010.0 1008.4 0.2
26/09:00pm 30.6 31.5 16.6 43 8.9 E 7 13 4 7 1009.2 1007.6 0.2
26/08:30pm 30.3 29.4 17.7 46 8.1 ESE 19 30 10 16 1009.1 1007.5 0.2
26/08:00pm 27.3 32.2 23.7 81 2.5 ESE 4 7 2 4 1008.8 1007.2 0.2
26/07:30pm 28.5 33.2 23.4 74 3.5 E 4 6 2 3 1008.2 1006.7 0.2
26/07:00pm 30.1 33.3 20.4 56 6.5 ENE 4 9 2 5 1007.7 1006.2 0.2
26/06:30pm 31.4 33.1 19.4 49 7.9 ENE 9 19 5 10 1007.3 1005.8 0.2
26/06:00pm 33.9 36.8 21.0 47 8.8 SE 7 9 4 5 1006.9 1005.3 0.2
26/05:30pm 34.5 37.3 20.8 44 9.3 ESE 7 15 4 8 1006.7 1005.1 0.2
26/05:00pm 33.5 35.7 19.6 44 9.3 SE 7 13 4 7 1006.8 1005.2 0.2
26/04:30pm 35.0 37.2 20.5 42 9.8 SE 9 15 5 8 1007.1 1005.6 0.2
26/04:00pm 34.2 36.3 20.2 43 9.4 SSE 9 19 5 10 1007.0 1005.5 0.2
26/03:30pm 34.5 35.8 20.1 43 9.7 SE 13 20 7 11 1007.2 1005.7 0.2
26/03:00pm 35.7 38.7 21.9 44 9.5 SSE 9 17 5 9 1007.5 1006.0 0.2
26/02:30pm 34.8 36.8 20.7 43 9.6 ESE 11 22 6 12 1007.6 1006.1 0.2
26/02:00pm 34.8 36.6 21.1 44 9.3 SE 13 22 7 12 1008.0 1006.5 0.2
26/01:30pm 34.0 35.8 21.1 47 8.8 S 13 20 7 11 1008.2 1006.7 0.2
26/01:00pm 34.2 36.6 21.6 47 8.6 SSE 11 20 6 11 1008.5 1007.0 0.2
26/12:30pm 34.2 36.8 21.9 48 8.5 SSE 11 19 6 10 1009.2 1007.6 0.2
26/12:00pm 33.2 35.7 21.7 51 7.9 SSE 11 20 6 11 1009.5 1007.9 0.2
26/11:30am 32.5 35.5 22.0 54 7.2 SSE 9 17 5 9 1009.9 1008.3 0.2
26/11:00am 32.0 35.9 23.0 59 6.2 S 7 13 4 7 1010.3 1008.7 0.2
26/10:30am 30.9 35.0 22.2 59 6.0 SW 4 9 2 5 1010.7 1009.1 0.2
26/10:00am 29.7 34.0 22.7 66 4.8 WSW 4 9 2 5 1010.8 1009.2 0.2
26/09:30am 28.6 32.6 22.8 71 4.0 WSW 6 7 3 4 1010.8 1009.2 0.0
26/09:00am 27.6 31.8 23.4 78 2.9 WSW 7 11 4 6 1010.6 1009.0 1.4
26/08:30am 26.2 30.4 23.1 83 2.1 SW 6 9 3 5 1010.5 1008.9 1.4
26/08:00am 24.8 29.0 23.2 91 1.1 WSW 6 11 3 6 1010.4 1008.8 1.4
26/07:30am 23.5 27.5 22.7 95 0.5 SSW 6 6 3 3 1010.2 1008.6 1.4
26/07:00am 22.7 26.6 21.9 95 0.5 SSW 4 6 2 3 1010.0 1008.4 1.4
26/06:30am 22.6 26.4 21.6 94 0.7 SW 4 4 2 2 1009.8 1008.2 1.4
26/06:00am 22.9 27.2 21.9 94 0.7 WSW 2 2 1 1 1009.6 1008.0 1.4
26/05:30am 22.9 26.8 21.9 94 0.7 SW 4 4 2 2 1009.2 1007.6 1.4
26/05:00am 23.2 27.7 22.2 94 0.7 W 2 4 1 2 1009.1 1007.5 1.4
26/04:30am 23.1 27.9 22.1 94 0.7 CALM 0 0 0 0 1009.3 1007.7 1.4
26/04:00am 22.8 27.2 21.4 92 0.9 CALM 0 0 0 0 1009.5 1007.9 1.4
26/03:30am 23.1 26.9 21.7 92 0.9 NW 4 6 2 3 1009.2 1007.6 1.4
26/03:00am 23.2 27.7 21.6 91 1.1 CALM 0 2 0 1 1009.6 1008.0 1.4
26/02:30am 23.6 28.3 21.9 90 1.1 CALM 0 0 0 0 1009.5 1007.9 1.4
26/02:00am 24.0 28.7 21.9 88 1.4 CALM 0 4 0 2 1010.0 1008.4 1.4
26/01:30am 24.1 28.6 21.6 86 1.7 CALM 0 0 0 0 1010.6 1009.0 1.4
26/01:00am 24.4 28.1 21.5 84 1.9 NE 4 7 2 4 1011.1 1009.5 1.4
26/12:30am 24.9 28.5 22.0 84 2.0 NE 6 7 3 4 1011.5 1010.0 1.4
26/12:00am 25.2 29.2 22.1 83 2.1 NE 4 7 2 4 1011.8 1010.3 1.4
 
Date/Time
CST
Temp
°C
App
Temp
°C
Dew
Point
°C
Rel
Hum
%
Delta-T
°C
Wind Press
QNH
hPa
Press
MSL
hPa
Rain since
9am
mm
Dir  Spd
km/h
Gust
km/h
Spd
kts
Gust
kts
25/11:30pm 25.3 29.0 22.6 85 1.8 NE 7 17 4 9 1011.8 1010.3 1.4
25/11:00pm 25.1 30.7 23.5 91 1.1 CALM 0 2 0 1 1012.0 1010.5 1.4
25/10:30pm 25.0 30.0 23.2 90 1.2 SSE 2 4 1 2 1012.2 1010.7 1.4
25/10:00pm 24.9 29.8 23.1 90 1.2 ESE 2 4 1 2 1012.0 1010.5 1.4
25/09:30pm 24.7 29.0 22.6 88 1.4 S 4 6 2 3 1011.7 1010.2 1.4
25/09:00pm 24.9 29.7 22.8 88 1.4 W 2 4 1 2 1011.2 1009.7 1.4
25/08:30pm 24.6 28.3 22.5 88 1.4 S 7 28 4 15 1011.0 1009.4 1.4
25/08:00pm 24.9 29.2 22.6 87 1.6 NW 4 4 2 2 1010.4 1008.8 1.4
25/07:30pm 24.7 28.7 22.8 89 1.3 W 6 11 3 6 1010.4 1008.8 1.4
25/07:00pm 25.0 27.8 22.3 85 1.8 SSW 11 19 6 10 1010.0 1008.4 1.4
25/06:30pm 26.7 30.2 22.8 79 2.7 SSW 9 20 5 11 1009.1 1007.5 1.4
25/06:19pm 28.2 30.5 20.7 63 5.0 S 9 20 5 11 1008.7 1007.1 1.0
25/06:00pm 33.2 37.3 22.9 54 7.2 WSW 6 9 3 5 1008.1 1006.6 0.0
25/05:30pm 33.5 37.7 23.2 54 7.2 WNW 6 9 3 5 1007.9 1006.4 0.0
25/05:00pm 32.8 36.1 22.6 55 7.0 NW 9 13 5 7 1007.9 1006.4 0.0
25/04:30pm 33.2 36.8 22.0 51 7.7 N 6 11 3 6 1008.3 1006.8 0.0
25/04:00pm 34.4 37.3 20.7 44 9.3 E 6 9 3 5 1008.2 1006.7 0.0
25/03:30pm 34.3 37.0 20.7 45 9.2 ESE 7 13 4 7 1008.7 1007.1 0.0
25/03:00pm 34.5 37.7 21.2 46 9.1 ESE 6 11 3 6 1009.1 1007.5 0.0
25/02:30pm 33.8 37.0 21.2 47 8.6 E 6 11 3 6 1009.5 1007.9 0.0
25/02:00pm 34.1 37.2 21.5 47 8.6 ENE 7 17 4 9 1010.0 1008.4 0.0
25/01:30pm 33.7 35.9 20.5 46 8.9 SE 9 17 5 9 1010.5 1008.9 0.0
25/01:00pm 33.4 36.5 21.5 49 8.1 E 7 15 4 8 1010.9 1009.3 0.0
25/12:30pm 32.1 35.1 21.3 53 7.3 ESE 7 15 4 8 1011.6 1010.1 0.0
25/12:00pm 33.0 35.9 21.8 51 7.7 ENE 9 17 5 9 1012.1 1010.6 0.0
25/11:30am 32.1 35.0 22.5 57 6.6 ENE 11 17 6 9 1012.6 1011.1 0.0
25/11:00am 31.3 35.0 22.6 60 6.0 ENE 7 13 4 7 1013.0 1011.5 0.0
25/10:30am 31.6 35.7 22.9 60 6.0 ENE 6 11 3 6 1013.1 1011.6 0.0
25/10:00am 30.4 34.1 22.3 62 5.5 E 6 9 3 5 1013.3 1011.8 0.0
25/09:30am 29.9 34.1 23.1 67 4.7 ENE 6 11 3 6 1013.2 1011.7 0.0
25/09:00am 28.4 32.7 22.6 71 4.0 NE 4 7 2 4 1013.3 1011.8 10.0
25/08:30am 27.3 30.9 23.1 78 2.9 NNE 9 15 5 8 1013.1 1011.6 10.0
25/08:00am 26.3 30.5 23.4 84 2.0 NE 7 13 4 7 1012.9 1011.4 10.0
25/07:30am 24.9 29.3 23.5 92 1.0 ESE 6 7 3 4 1012.8 1011.3 10.0
25/07:00am 23.8 28.2 22.8 94 0.7 E 4 4 2 2 1012.5 1011.0 10.0
25/06:30am 23.7 27.6 22.5 93 0.8 ENE 6 7 3 4 1012.4 1010.9 10.0
25/06:00am 24.0 27.7 22.6 92 0.9 ESE 7 13 4 7 1012.3 1010.8 10.0
25/05:30am 24.3 27.9 23.1 93 0.8 ESE 9 13 5 7 1012.1 1010.6 10.0
25/05:00am 24.3 28.3 23.1 93 0.8 SE 7 11 4 6 1011.9 1010.4 10.0
25/04:30am 24.3 28.6 23.3 94 0.7 SE 6 7 3 4 1011.9 1010.4 10.0
25/04:00am 24.1 28.7 23.1 94 0.7 SE 4 7 2 4 1011.9 1010.4 10.0
25/03:30am 24.1 28.3 23.1 94 0.7 SSE 6 7 3 4 1011.7 1010.2 10.0
25/03:00am 24.0 28.5 23.0 94 0.7 SSE 4 6 2 3 1011.7 1010.2 10.0
25/02:30am 24.0 28.4 22.8 93 0.8 SSE 4 6 2 3 1011.8 1010.3 10.0
25/02:00am 24.1 28.4 22.7 92 0.9 S 4 6 2 3 1011.8 1010.3 10.0
25/01:30am 24.5 29.8 23.1 92 1.0 CALM 0 0 0 0 1012.1 1010.6 10.0
25/01:00am 24.6 29.6 23.2 92 1.0 SE 2 4 1 2 1012.5 1011.0 10.0
25/12:30am 24.7 30.1 23.3 92 1.0 CALM 0 0 0 0 1012.8 1011.3 10.0
25/12:00am 24.7 30.0 23.1 91 1.1 CALM 0 0 0 0 1013.3 1011.8 10.0
 
Date/Time
CST
Temp
°C
App
Temp
°C
Dew
Point
°C
Rel
Hum
%
Delta-T
°C
Wind Press
QNH
hPa
Press
MSL
hPa
Rain since
9am
mm
Dir  Spd
km/h
Gust
km/h
Spd
kts
Gust
kts
24/11:30pm 24.5 29.1 23.1 92 1.0 SSE 4 6 2 3 1013.8 1012.2 10.0
24/11:00pm 24.4 29.7 23.0 92 1.0 CALM 0 0 0 0 1013.8 1012.2 10.0
24/10:30pm 24.3 29.1 22.9 92 1.0 S 2 4 1 2 1013.7 1012.1 10.0
24/10:00pm 24.4 28.8 22.8 91 1.1 SSE 4 4 2 2 1013.1 1011.6 10.0
24/09:30pm 24.6 29.4 22.8 90 1.2 S 2 2 1 1 1012.5 1011.0 10.0
24/09:00pm 24.7 29.2 22.9 90 1.2 SSE 4 6 2 3 1012.1 1010.6 10.0
24/08:30pm 24.8 29.3 23.0 90 1.2 S 4 6 2 3 1011.4 1009.9 10.0
24/08:00pm 25.0 29.6 23.1 89 1.3 SW 4 6 2 3 1011.1 1009.5 10.0
24/07:30pm 25.4 30.1 23.3 88 1.4 SSW 4 6 2 3 1010.9 1009.3 10.0
24/07:00pm 25.8 31.4 23.5 87 1.6 CALM 0 6 0 3 1010.9 1009.3 10.0
24/06:30pm 26.3 31.0 23.4 84 2.0 NW 4 6 2 3 1010.7 1009.1 10.0
24/06:00pm 26.5 31.1 23.2 82 2.3 NW 4 7 2 4 1010.8 1009.2 10.0
24/05:30pm 26.9 30.8 22.9 79 2.7 NW 7 13 4 7 1010.5 1008.9 10.0
24/05:00pm 28.3 32.8 23.7 76 3.2 ESE 6 11 3 6 1010.7 1009.1 10.0
24/04:30pm 28.4 32.6 23.1 73 3.7 ESE 6 9 3 5 1010.3 1008.7 10.0
24/04:00pm 28.3 32.5 23.2 74 3.5 SE 6 11 3 6 1010.4 1008.8 9.8
24/03:30pm 27.9 31.6 23.3 76 3.2 ESE 9 13 5 7 1010.3 1008.7 9.8
24/03:00pm 27.8 31.4 23.0 75 3.3 ESE 9 19 5 10 1010.8 1009.2 9.8
24/02:30pm 28.7 32.8 24.5 78 2.9 SE 11 19 6 10 1011.0 1009.4 9.8
24/02:00pm 28.1 33.0 24.7 82 2.4 SE 7 11 4 6 1010.9 1009.3 9.8
24/01:30pm 26.3 31.2 24.3 89 1.4 SSE 6 11 3 6 1011.7 1010.2 9.8
24/01:00pm 24.8 28.9 23.2 91 1.1 S 7 11 4 6 1012.6 1011.1 9.8
24/12:30pm 24.8 28.9 23.0 90 1.2 SW 6 7 3 4 1013.4 1011.9 6.6
24/12:00pm 27.9 29.5 21.4 67 4.4 NNE 15 30 8 16 1013.2 1011.7 0.0
24/11:30am 29.4 34.3 24.3 74 3.6 NNE 6 11 3 6 1013.0 1011.5 0.0
24/11:00am 28.5 33.9 24.5 79 2.8 NNE 4 11 2 6 1013.2 1011.7 0.0
24/10:30am 27.1 31.9 24.4 85 1.9 NE 7 13 4 7 1013.7 1012.1 0.0
24/10:00am 25.3 29.5 23.5 90 1.2 ENE 7 13 4 7 1013.4 1011.9 0.0
24/09:30am 24.3 27.3 22.6 90 1.2 NE 11 17 6 9 1013.6 1012.0 0.0

Other Formats:

Comma delimited format used in spreadsheet applications
http://www.bom.gov.au/fwo/IDD60801/IDD60801.94234.axf

JavaScript Object Notation format (JSON) in row-major order
http://www.bom.gov.au/fwo/IDD60801/IDD60801.94234.json